createdAt,value
2018-08-09T00:03:19.090Z,23.90
2018-08-09T00:08:23.484Z,23.80
2018-08-09T00:13:26.865Z,23.70
2018-08-09T00:18:29.964Z,23.70
2018-08-09T00:23:33.053Z,23.60
2018-08-09T00:28:36.162Z,23.50
2018-08-09T00:33:39.216Z,23.50
2018-08-09T00:38:42.510Z,23.40
2018-08-09T00:43:45.593Z,23.30
2018-08-09T00:48:48.753Z,23.30
2018-08-09T00:53:51.846Z,23.30
2018-08-09T00:58:54.924Z,23.40
2018-08-09T01:03:58.016Z,23.30
2018-08-09T01:09:06.803Z,23.20
2018-08-09T01:14:10.054Z,23.10
2018-08-09T01:19:13.103Z,23.00
2018-08-09T01:24:16.185Z,23.00
2018-08-09T01:29:19.274Z,23.00
2018-08-09T01:34:22.372Z,23.00
2018-08-09T01:39:25.456Z,23.00
2018-08-09T01:44:29.055Z,23.00
2018-08-09T01:49:32.285Z,23.00
2018-08-09T01:54:35.379Z,23.00
2018-08-09T01:59:38.455Z,23.00
2018-08-09T02:04:41.606Z,22.90
2018-08-09T02:09:45.053Z,22.90
2018-08-09T02:14:49.184Z,22.80
2018-08-09T02:19:52.301Z,22.80
2018-08-09T02:24:55.400Z,22.70
2018-08-09T02:29:58.424Z,22.60
2018-08-09T02:35:01.487Z,22.50
2018-08-09T02:40:05.098Z,22.40
2018-08-09T02:45:08.279Z,22.40
2018-08-09T02:50:11.436Z,22.30
2018-08-09T02:55:14.497Z,22.20
2018-08-09T03:00:17.643Z,22.20
2018-08-09T03:05:20.717Z,22.10
2018-08-09T03:10:23.796Z,22.10
2018-08-09T03:15:26.874Z,22.10
2018-08-09T03:20:30.068Z,22.10
2018-08-09T03:25:34.124Z,22.10
2018-08-09T03:30:37.202Z,22.00
2018-08-09T03:35:40.685Z,22.00
2018-08-09T03:40:43.815Z,22.00
2018-08-09T03:45:47.020Z,22.00
2018-08-09T03:50:50.108Z,22.00
2018-08-09T03:55:53.208Z,21.90
2018-08-09T04:00:56.366Z,22.00
2018-08-09T04:05:59.461Z,22.00
2018-08-09T04:11:02.547Z,22.10
2018-08-09T04:16:05.752Z,22.10
2018-08-09T04:21:08.828Z,22.10
2018-08-09T04:26:11.929Z,22.20
2018-08-09T04:31:14.964Z,22.10
2018-08-09T04:36:18.056Z,22.10
2018-08-09T04:41:21.091Z,22.20
2018-08-09T04:46:24.233Z,22.20
2018-08-09T04:51:27.341Z,22.20
2018-08-09T04:56:30.448Z,22.30
2018-08-09T05:01:33.557Z,22.30
2018-08-09T05:06:36.671Z,22.30
2018-08-09T05:11:40.466Z,22.30
2018-08-09T05:16:43.523Z,22.30
2018-08-09T05:21:46.665Z,22.40
2018-08-09T05:26:49.802Z,22.40
2018-08-09T05:31:52.892Z,22.40
2018-08-09T05:36:57.112Z,22.60
2018-08-09T05:42:00.182Z,22.70
2018-08-09T05:47:03.387Z,22.80
2018-08-09T05:52:06.494Z,22.80
2018-08-09T05:57:09.785Z,22.90
2018-08-09T06:02:12.923Z,23.00
2018-08-09T06:07:16.096Z,23.20
2018-08-09T06:12:19.380Z,23.20
2018-08-09T06:17:23.237Z,23.50
2018-08-09T06:22:26.461Z,24.00
2018-08-09T06:27:29.549Z,24.80
2018-08-09T06:32:32.678Z,25.50
2018-08-09T06:37:35.899Z,25.80
2018-08-09T06:42:40.390Z,26.00
2018-08-09T06:47:43.489Z,26.30
2018-08-09T06:52:46.534Z,26.60
2018-08-09T06:57:49.663Z,27.00
2018-08-09T07:02:52.736Z,27.50
2018-08-09T07:07:55.828Z,27.70
2018-08-09T07:12:59.037Z,28.00
2018-08-09T07:18:02.124Z,28.40
2018-08-09T07:23:05.280Z,28.90
2018-08-09T07:28:08.535Z,29.40
2018-08-09T07:33:13.922Z,29.70
2018-08-09T07:38:17.384Z,29.90
2018-08-09T07:43:20.557Z,30.20
2018-08-09T07:48:24.689Z,30.10
2018-08-09T07:53:27.805Z,30.50
2018-08-09T07:58:31.138Z,31.00
2018-08-09T08:03:34.272Z,30.80
2018-08-09T08:08:37.351Z,31.00
2018-08-09T08:13:40.429Z,31.10
2018-08-09T08:18:43.911Z,31.20
2018-08-09T08:23:47.108Z,31.20
2018-08-09T08:28:50.257Z,31.00
2018-08-09T08:33:53.373Z,31.30
2018-08-09T08:44:22.683Z,31.50
2018-08-09T08:49:26.463Z,31.40
2018-08-09T08:54:29.535Z,30.60
2018-08-09T08:59:32.866Z,30.00
2018-08-09T09:04:37.004Z,30.20
2018-08-09T09:09:40.246Z,29.90
2018-08-09T09:14:43.415Z,29.70
2018-08-09T09:19:46.532Z,29.30
2018-08-09T09:24:54.266Z,29.30
2018-08-09T09:29:57.398Z,28.90
2018-08-09T09:35:01.084Z,28.70
2018-08-09T09:40:05.376Z,28.60
2018-08-09T09:45:09.494Z,28.60
2018-08-09T09:50:12.910Z,28.80
2018-08-09T09:55:16.097Z,28.80
2018-08-09T10:00:24.720Z,28.80
2018-08-09T10:05:28.553Z,28.90
2018-08-09T10:10:32.389Z,29.00
2018-08-09T10:15:35.547Z,29.00
2018-08-09T10:20:38.759Z,29.00
2018-08-09T10:25:42.085Z,29.30
2018-08-09T10:30:45.260Z,29.40
2018-08-09T10:35:48.625Z,29.40
2018-08-09T10:40:52.008Z,29.40
2018-08-09T10:45:55.465Z,29.50
2018-08-09T10:50:58.813Z,29.50
2018-08-09T10:56:02.785Z,29.70
2018-08-09T11:01:06.257Z,29.80
2018-08-09T11:06:09.607Z,29.90
2018-08-09T11:11:14.110Z,30.00
2018-08-09T11:16:18.345Z,30.20
2018-08-09T11:21:23.972Z,30.20
2018-08-09T11:26:27.352Z,30.20
2018-08-09T11:31:31.631Z,30.30
2018-08-09T11:36:34.736Z,30.50
2018-08-09T11:41:37.917Z,30.80
2018-08-09T11:46:41.032Z,30.80
2018-08-09T11:51:44.172Z,31.00
2018-08-09T11:56:47.427Z,31.10
2018-08-09T12:01:50.539Z,31.10
2018-08-09T12:06:53.741Z,31.20
2018-08-09T12:11:56.945Z,31.40
2018-08-09T12:17:00.123Z,31.50
2018-08-09T12:22:03.564Z,31.60
2018-08-09T12:27:07.813Z,31.90
2018-08-09T12:32:11.171Z,32.10
2018-08-09T12:37:14.379Z,31.90
2018-08-09T12:42:17.565Z,32.10
2018-08-09T12:47:20.917Z,32.30
2018-08-09T12:52:24.198Z,32.20
2018-08-09T12:57:27.337Z,32.20
2018-08-09T13:02:30.521Z,32.30
2018-08-09T13:07:34.073Z,32.40
2018-08-09T13:12:37.648Z,32.40
2018-08-09T13:17:41.384Z,32.60
2018-08-09T13:22:44.511Z,32.60
2018-08-09T13:27:48.001Z,32.50
2018-08-09T13:32:51.246Z,32.50
2018-08-09T13:37:54.354Z,32.60
2018-08-09T13:42:57.426Z,32.50
2018-08-09T13:48:00.676Z,32.60
2018-08-09T13:53:03.798Z,32.60
2018-08-09T13:58:07.006Z,32.60
2018-08-09T14:03:10.465Z,32.80
2018-08-09T14:08:13.718Z,32.90
2018-08-09T14:13:16.906Z,32.90
2018-08-09T14:18:20.232Z,32.70
2018-08-09T14:23:23.340Z,32.80
2018-08-09T14:28:27.145Z,32.90
2018-08-09T14:33:30.584Z,32.90
2018-08-09T14:38:33.746Z,33.00
2018-08-09T14:43:37.240Z,33.20
2018-08-09T14:48:40.515Z,33.20
2018-08-09T14:53:43.691Z,33.20
2018-08-09T14:58:46.841Z,33.20
2018-08-09T15:03:49.950Z,33.20
2018-08-09T15:08:53.135Z,33.10
2018-08-09T15:13:56.374Z,33.10
2018-08-09T15:18:59.517Z,33.10
2018-08-09T15:24:02.817Z,33.10
2018-08-09T15:29:05.950Z,33.10
2018-08-09T15:34:09.085Z,33.10
2018-08-09T15:39:13.902Z,33.10
2018-08-09T15:44:16.995Z,33.20
2018-08-09T15:49:20.158Z,33.30
2018-08-09T15:54:23.289Z,33.30
2018-08-09T15:59:26.515Z,33.30
2018-08-09T16:04:29.615Z,33.20
2018-08-09T16:09:32.805Z,33.10
2018-08-09T16:14:35.885Z,33.20
2018-08-09T16:19:40.122Z,33.30
2018-08-09T16:24:43.272Z,33.30
2018-08-09T16:29:46.367Z,33.20
2018-08-09T16:34:49.651Z,33.20
2018-08-09T16:39:52.784Z,33.10
2018-08-09T16:44:55.919Z,33.10
2018-08-09T16:49:59.063Z,33.00
2018-08-09T16:55:02.281Z,33.00
2018-08-09T17:00:08.640Z,32.80
2018-08-09T17:05:19.242Z,32.80
2018-08-09T17:10:23.484Z,32.70
2018-08-09T17:15:28.078Z,32.60
2018-08-09T17:20:32.920Z,32.50
2018-08-09T17:25:37.009Z,32.40
2018-08-09T17:30:40.809Z,32.20
2018-08-09T17:35:44.041Z,32.10
2018-08-09T17:40:47.309Z,31.90
2018-08-09T17:45:50.764Z,31.70
2018-08-09T17:50:53.895Z,31.60
2018-08-09T17:55:59.147Z,31.50
2018-08-09T18:01:03.378Z,31.50
2018-08-09T18:06:06.595Z,31.50
2018-08-09T18:16:22.710Z,31.40
2018-08-09T18:21:25.949Z,31.20
2018-08-09T18:26:30.287Z,31.10
2018-08-09T18:31:33.722Z,30.90
2018-08-09T18:36:37.016Z,30.70
2018-08-09T18:41:40.219Z,30.60
2018-08-09T18:46:45.169Z,30.30
2018-08-09T18:51:48.371Z,30.20
2018-08-09T18:56:51.507Z,30.10
2018-08-09T19:01:54.639Z,30.00
2018-08-09T19:06:57.886Z,29.90
2018-08-09T19:12:01.682Z,29.70
2018-08-09T19:17:04.916Z,29.60
2018-08-09T19:22:08.089Z,29.50
2018-08-09T19:27:11.223Z,29.40
2018-08-09T19:32:14.393Z,29.30
2018-08-09T19:37:17.636Z,29.10
2018-08-09T19:42:20.831Z,29.10
2018-08-09T19:47:25.224Z,28.90
2018-08-09T19:52:28.465Z,28.80
2018-08-09T19:57:32.640Z,28.70
2018-08-09T20:02:36.836Z,28.60
2018-08-09T20:07:40.226Z,28.50
2018-08-09T20:12:44.064Z,28.60
2018-08-09T20:17:49.145Z,28.40
2018-08-09T20:22:52.420Z,27.90
2018-08-09T20:27:56.978Z,27.50
2018-08-09T20:33:00.295Z,27.30
2018-08-09T20:38:03.476Z,27.10
2018-08-09T20:43:06.613Z,26.80
2018-08-09T20:48:09.763Z,26.60
2018-08-09T20:53:12.890Z,26.40
2018-08-09T20:58:15.967Z,26.20
2018-08-09T21:03:19.140Z,26.10
2018-08-09T21:08:22.362Z,25.60
2018-08-09T21:13:25.589Z,24.80
2018-08-09T21:18:28.973Z,24.20
2018-08-09T21:23:32.046Z,23.80
2018-08-09T21:28:36.703Z,23.00
2018-08-09T21:33:39.847Z,22.40
2018-08-09T21:38:43.013Z,22.20
2018-08-09T21:43:46.146Z,22.20
2018-08-09T21:48:49.241Z,22.20
2018-08-09T21:53:52.395Z,22.20
2018-08-09T21:58:55.667Z,22.30
2018-08-09T22:04:00.371Z,22.30
2018-08-09T22:09:08.989Z,22.40
2018-08-09T22:14:17.463Z,22.40
2018-08-09T22:19:26.183Z,22.40
2018-08-09T22:24:29.480Z,22.30
2018-08-09T22:29:34.211Z,22.30
2018-08-09T22:34:37.364Z,22.20
2018-08-09T22:39:40.476Z,22.20
2018-08-09T22:44:43.657Z,22.20
2018-08-09T22:49:46.776Z,22.20
2018-08-09T22:54:49.972Z,22.20
2018-08-09T22:59:53.114Z,22.10
2018-08-09T23:04:56.210Z,22.10
2018-08-09T23:09:59.332Z,22.10
2018-08-09T23:15:02.657Z,22.00
2018-08-09T23:20:06.866Z,21.90
2018-08-09T23:25:12.589Z,21.80
2018-08-09T23:30:15.791Z,21.80
2018-08-09T23:35:19.108Z,21.70
2018-08-09T23:40:22.230Z,21.70
2018-08-09T23:45:25.514Z,21.60
2018-08-09T23:50:28.660Z,21.60
2018-08-09T23:55:31.801Z,21.60
